FYWH

Hosea Kutako International Airport

Windhoek, Namibia
METAR FYWH 181800Z 00000KT CAVOK 12/M08 Q1025 NOSIG
Observed Flight Rules
Jun-18 @ 18:00 UTC (5 hours ago) Visual Flight Rules
Visibility Clouds
10,000+ meters
  • Clear skies
Temperatures Readings
Current 12°C / 54°F
Dewpoint -8°C / 18°F
Humidity 24%
Altimeter 30.27" Hg
Pressure 1025 hPa
Elevation 1700
METAR FYWH 181800Z 00000KT CAVOK 12/M08 Q1025 NOSIG
Observed Flight Rules
Jun-18 @ 18:00 UTC
(5 hours ago)
VFR
Clouds
  • Clear skies
Temperature Dewpoint
12°C / 54°F -8°C / 18°F
Humidity Altimeter Pressure
24% 30.27" Hg 1025 hPa